sensor_id;sensor_type;location;lat;lon;timestamp;temperature;humidity
75838;SHT30;64480;52.040;113.502;2023-05-10T00:05:17;24.82;18.33
75838;SHT30;64480;52.040;113.502;2023-05-10T00:08:20;24.62;18.40
75838;SHT30;64480;52.040;113.502;2023-05-10T00:11:24;24.41;18.78
75838;SHT30;64480;52.040;113.502;2023-05-10T00:14:27;24.21;18.70
75838;SHT30;64480;52.040;113.502;2023-05-10T00:17:56;24.33;18.61
75838;SHT30;64480;52.040;113.502;2023-05-10T00:20:59;24.37;18.58
75838;SHT30;64480;52.040;113.502;2023-05-10T00:24:03;24.43;18.82
75838;SHT30;64480;52.040;113.502;2023-05-10T00:27:06;24.33;18.53
75838;SHT30;64480;52.040;113.502;2023-05-10T00:30:10;24.05;19.10
75838;SHT30;64480;52.040;113.502;2023-05-10T00:33:13;24.76;18.32
75838;SHT30;64480;52.040;113.502;2023-05-10T00:36:17;24.35;18.64
75838;SHT30;64480;52.040;113.502;2023-05-10T00:39:20;23.63;19.17
75838;SHT30;64480;52.040;113.502;2023-05-10T00:42:24;22.21;20.48
75838;SHT30;64480;52.040;113.502;2023-05-10T00:45:30;20.87;22.02
75838;SHT30;64480;52.040;113.502;2023-05-10T00:48:34;19.56;23.40
75838;SHT30;64480;52.040;113.502;2023-05-10T00:51:38;18.70;24.62
75838;SHT30;64480;52.040;113.502;2023-05-10T00:54:41;18.27;25.00
75838;SHT30;64480;52.040;113.502;2023-05-10T00:57:45;17.74;25.67
75838;SHT30;64480;52.040;113.502;2023-05-10T01:00:49;17.61;25.76
75838;SHT30;64480;52.040;113.502;2023-05-10T01:03:54;17.42;26.08
75838;SHT30;64480;52.040;113.502;2023-05-10T01:06:58;17.42;26.20
75838;SHT30;64480;52.040;113.502;2023-05-10T01:10:02;17.52;26.01
75838;SHT30;64480;52.040;113.502;2023-05-10T01:13:05;17.62;26.24
75838;SHT30;64480;52.040;113.502;2023-05-10T01:16:09;17.53;26.25
75838;SHT30;64480;52.040;113.502;2023-05-10T01:19:24;17.59;26.01
75838;SHT30;64480;52.040;113.502;2023-05-10T01:40:10;18.22;25.23
75838;SHT30;64480;52.040;113.502;2023-05-10T01:43:23;18.53;24.97
75838;SHT30;64480;52.040;113.502;2023-05-10T01:46:37;18.67;24.74
75838;SHT30;64480;52.040;113.502;2023-05-10T01:49:45;18.86;24.91
75838;SHT30;64480;52.040;113.502;2023-05-10T01:52:53;19.21;24.63
75838;SHT30;64480;52.040;113.502;2023-05-10T01:55:58;19.52;24.11
75838;SHT30;64480;52.040;113.502;2023-05-10T01:59:06;19.67;23.83
75838;SHT30;64480;52.040;113.502;2023-05-10T02:02:12;19.84;23.52
75838;SHT30;64480;52.040;113.502;2023-05-10T02:05:38;20.17;23.51
75838;SHT30;64480;52.040;113.502;2023-05-10T02:08:42;20.53;22.65
75838;SHT30;64480;52.040;113.502;2023-05-10T02:11:48;20.80;22.23
75838;SHT30;64480;52.040;113.502;2023-05-10T02:14:52;20.86;22.15
75838;SHT30;64480;52.040;113.502;2023-05-10T02:17:57;21.21;21.83
75838;SHT30;64480;52.040;113.502;2023-05-10T02:21:02;21.52;21.18
75838;SHT30;64480;52.040;113.502;2023-05-10T02:24:06;21.69;20.69
75838;SHT30;64480;52.040;113.502;2023-05-10T02:27:12;21.63;20.77
75838;SHT30;64480;52.040;113.502;2023-05-10T02:30:18;21.85;20.89
75838;SHT30;64480;52.040;113.502;2023-05-10T02:33:23;22.00;20.11
75838;SHT30;64480;52.040;113.502;2023-05-10T02:36:27;22.17;19.80
75838;SHT30;64480;52.040;113.502;2023-05-10T02:39:31;22.47;20.06
75838;SHT30;64480;52.040;113.502;2023-05-10T02:42:56;22.65;20.45
75838;SHT30;64480;52.040;113.502;2023-05-10T02:46:01;22.65;19.73
75838;SHT30;64480;52.040;113.502;2023-05-10T02:49:05;22.71;20.07
75838;SHT30;64480;52.040;113.502;2023-05-10T02:52:21;22.68;19.36
75838;SHT30;64480;52.040;113.502;2023-05-10T02:55:42;22.77;19.69
75838;SHT30;64480;52.040;113.502;2023-05-10T03:17:11;23.44;19.42
75838;SHT30;64480;52.040;113.502;2023-05-10T03:20:30;23.37;19.11
75838;SHT30;64480;52.040;113.502;2023-05-10T03:23:43;23.48;19.45
75838;SHT30;64480;52.040;113.502;2023-05-10T03:27:26;23.55;19.09
75838;SHT30;64480;52.040;113.502;2023-05-10T03:30:32;23.57;18.59
75838;SHT30;64480;52.040;113.502;2023-05-10T03:33:48;23.57;18.51
75838;SHT30;64480;52.040;113.502;2023-05-10T03:37:07;23.55;18.96
75838;SHT30;64480;52.040;113.502;2023-05-10T03:52:00;24.07;18.61
75838;SHT30;64480;52.040;113.502;2023-05-10T03:55:06;24.06;18.31
75838;SHT30;64480;52.040;113.502;2023-05-10T03:58:17;23.99;18.32
75838;SHT30;64480;52.040;113.502;2023-05-10T04:01:38;24.03;17.95
75838;SHT30;64480;52.040;113.502;2023-05-10T04:04:43;24.09;17.87
75838;SHT30;64480;52.040;113.502;2023-05-10T04:07:47;23.98;18.01
75838;SHT30;64480;52.040;113.502;2023-05-10T04:11:11;23.89;18.47
75838;SHT30;64480;52.040;113.502;2023-05-10T04:14:16;23.98;18.38
75838;SHT30;64480;52.040;113.502;2023-05-10T04:17:20;24.16;18.00
75838;SHT30;64480;52.040;113.502;2023-05-10T04:20:27;24.24;17.90
75838;SHT30;64480;52.040;113.502;2023-05-10T04:23:44;24.33;17.59
75838;SHT30;64480;52.040;113.502;2023-05-10T04:26:50;24.34;17.80
75838;SHT30;64480;52.040;113.502;2023-05-10T04:29:54;24.35;17.46
75838;SHT30;64480;52.040;113.502;2023-05-10T04:32:58;24.33;17.55
75838;SHT30;64480;52.040;113.502;2023-05-10T04:36:02;24.30;17.28
75838;SHT30;64480;52.040;113.502;2023-05-10T04:39:11;24.40;17.56
75838;SHT30;64480;52.040;113.502;2023-05-10T04:42:23;24.58;17.33
75838;SHT30;64480;52.040;113.502;2023-05-10T04:45:43;24.52;17.23
75838;SHT30;64480;52.040;113.502;2023-05-10T04:48:50;24.47;17.24
75838;SHT30;64480;52.040;113.502;2023-05-10T04:51:56;24.54;17.07
75838;SHT30;64480;52.040;113.502;2023-05-10T04:55:01;24.51;17.08
75838;SHT30;64480;52.040;113.502;2023-05-10T04:58:18;24.67;17.28
75838;SHT30;64480;52.040;113.502;2023-05-10T05:01:22;24.88;16.87
75838;SHT30;64480;52.040;113.502;2023-05-10T05:04:26;24.99;16.17
75838;SHT30;64480;52.040;113.502;2023-05-10T05:07:35;25.09;15.93
75838;SHT30;64480;52.040;113.502;2023-05-10T05:11:02;25.30;15.71
75838;SHT30;64480;52.040;113.502;2023-05-10T05:14:25;25.34;15.51
75838;SHT30;64480;52.040;113.502;2023-05-10T05:17:55;25.40;15.17
75838;SHT30;64480;52.040;113.502;2023-05-10T05:20:59;25.62;15.26
75838;SHT30;64480;52.040;113.502;2023-05-10T05:24:21;25.93;15.24
75838;SHT30;64480;52.040;113.502;2023-05-10T05:27:41;26.15;14.87
75838;SHT30;64480;52.040;113.502;2023-05-10T05:30:46;26.29;14.77
75838;SHT30;64480;52.040;113.502;2023-05-10T05:34:07;26.36;14.56
75838;SHT30;64480;52.040;113.502;2023-05-10T05:37:15;26.52;14.47
75838;SHT30;64480;52.040;113.502;2023-05-10T05:40:19;26.60;14.52
75838;SHT30;64480;52.040;113.502;2023-05-10T05:43:23;26.39;14.35
75838;SHT30;64480;52.040;113.502;2023-05-10T05:46:33;26.33;14.98
75838;SHT30;64480;52.040;113.502;2023-05-10T05:49:37;26.47;14.59
75838;SHT30;64480;52.040;113.502;2023-05-10T05:52:42;26.58;14.42
75838;SHT30;64480;52.040;113.502;2023-05-10T05:59:53;26.82;14.40
75838;SHT30;64480;52.040;113.502;2023-05-10T06:02:57;27.06;14.49
75838;SHT30;64480;52.040;113.502;2023-05-10T06:06:01;27.30;14.68
75838;SHT30;64480;52.040;113.502;2023-05-10T06:09:15;27.46;14.27
75838;SHT30;64480;52.040;113.502;2023-05-10T06:12:38;27.67;13.99
75838;SHT30;64480;52.040;113.502;2023-05-10T06:15:51;27.70;13.85
75838;SHT30;64480;52.040;113.502;2023-05-10T06:18:55;27.84;13.62
75838;SHT30;64480;52.040;113.502;2023-05-10T06:21:59;27.76;13.88
75838;SHT30;64480;52.040;113.502;2023-05-10T06:25:10;27.91;13.62
75838;SHT30;64480;52.040;113.502;2023-05-10T06:28:15;27.99;13.78
75838;SHT30;64480;52.040;113.502;2023-05-10T06:31:19;27.96;13.66
75838;SHT30;64480;52.040;113.502;2023-05-10T06:34:28;28.08;13.39
75838;SHT30;64480;52.040;113.502;2023-05-10T06:37:46;28.09;13.49
75838;SHT30;64480;52.040;113.502;2023-05-10T06:40:50;28.24;13.52
75838;SHT30;64480;52.040;113.502;2023-05-10T06:44:03;28.39;13.40
75838;SHT30;64480;52.040;113.502;2023-05-10T06:47:09;28.44;13.29
75838;SHT30;64480;52.040;113.502;2023-05-10T06:50:29;28.27;13.23
75838;SHT30;64480;52.040;113.502;2023-05-10T06:53:43;28.40;13.56
75838;SHT30;64480;52.040;113.502;2023-05-10T06:57:05;28.53;13.50
75838;SHT30;64480;52.040;113.502;2023-05-10T07:00:30;28.49;13.63
75838;SHT30;64480;52.040;113.502;2023-05-10T07:03:46;28.32;14.13
75838;SHT30;64480;52.040;113.502;2023-05-10T07:07:04;28.20;14.14
75838;SHT30;64480;52.040;113.502;2023-05-10T07:10:19;28.02;14.14
75838;SHT30;64480;52.040;113.502;2023-05-10T07:13:23;27.85;14.08
75838;SHT30;64480;52.040;113.502;2023-05-10T07:16:30;27.72;14.17
75838;SHT30;64480;52.040;113.502;2023-05-10T07:19:38;27.62;14.22
75838;SHT30;64480;52.040;113.502;2023-05-10T07:22:42;27.32;14.40
75838;SHT30;64480;52.040;113.502;2023-05-10T07:25:50;27.23;14.46
75838;SHT30;64480;52.040;113.502;2023-05-10T07:28:58;27.23;14.72
75838;SHT30;64480;52.040;113.502;2023-05-10T07:32:05;27.12;14.77
75838;SHT30;64480;52.040;113.502;2023-05-10T07:35:15;26.96;14.91
75838;SHT30;64480;52.040;113.502;2023-05-10T07:38:22;26.64;15.17
75838;SHT30;64480;52.040;113.502;2023-05-10T07:41:29;26.64;15.19
75838;SHT30;64480;52.040;113.502;2023-05-10T07:44:38;26.58;15.05
75838;SHT30;64480;52.040;113.502;2023-05-10T07:47:46;26.43;15.31
75838;SHT30;64480;52.040;113.502;2023-05-10T07:50:55;26.23;15.49
75838;SHT30;64480;52.040;113.502;2023-05-10T07:54:02;26.22;15.82
75838;SHT30;64480;52.040;113.502;2023-05-10T07:57:08;26.29;15.85
75838;SHT30;64480;52.040;113.502;2023-05-10T08:00:13;26.30;15.71
75838;SHT30;64480;52.040;113.502;2023-05-10T08:03:24;26.32;15.61
75838;SHT30;64480;52.040;113.502;2023-05-10T08:06:38;26.27;15.53
75838;SHT30;64480;52.040;113.502;2023-05-10T08:09:47;26.34;16.06
75838;SHT30;64480;52.040;113.502;2023-05-10T08:12:50;26.39;15.77
75838;SHT30;64480;52.040;113.502;2023-05-10T08:15:57;26.43;15.62
75838;SHT30;64480;52.040;113.502;2023-05-10T08:19:10;26.39;15.86
75838;SHT30;64480;52.040;113.502;2023-05-10T08:22:14;26.44;15.66
75838;SHT30;64480;52.040;113.502;2023-05-10T08:25:19;26.51;15.60
75838;SHT30;64480;52.040;113.502;2023-05-10T08:28:23;26.51;15.52
75838;SHT30;64480;52.040;113.502;2023-05-10T08:31:27;26.57;15.54
75838;SHT30;64480;52.040;113.502;2023-05-10T08:34:31;26.48;15.63
75838;SHT30;64480;52.040;113.502;2023-05-10T08:37:34;26.52;15.65
75838;SHT30;64480;52.040;113.502;2023-05-10T08:40:43;26.45;15.49
75838;SHT30;64480;52.040;113.502;2023-05-10T08:44:08;26.33;15.95
75838;SHT30;64480;52.040;113.502;2023-05-10T08:47:11;26.36;16.05
75838;SHT30;64480;52.040;113.502;2023-05-10T08:50:18;26.37;15.77
75838;SHT30;64480;52.040;113.502;2023-05-10T08:53:24;26.34;16.21
75838;SHT30;64480;52.040;113.502;2023-05-10T08:56:30;26.30;15.97
75838;SHT30;64480;52.040;113.502;2023-05-10T08:59:33;26.26;15.85
75838;SHT30;64480;52.040;113.502;2023-05-10T09:02:37;26.20;16.11
75838;SHT30;64480;52.040;113.502;2023-05-10T09:05:41;26.12;15.73
75838;SHT30;64480;52.040;113.502;2023-05-10T09:08:47;26.02;15.84
75838;SHT30;64480;52.040;113.502;2023-05-10T09:11:55;25.90;15.97
75838;SHT30;64480;52.040;113.502;2023-05-10T09:15:01;25.86;15.98
75838;SHT30;64480;52.040;113.502;2023-05-10T09:18:08;25.85;16.03
75838;SHT30;64480;52.040;113.502;2023-05-10T09:21:15;25.86;15.90
75838;SHT30;64480;52.040;113.502;2023-05-10T09:25:08;25.67;15.78
75838;SHT30;64480;52.040;113.502;2023-05-10T09:28:32;25.67;15.86
75838;SHT30;64480;52.040;113.502;2023-05-10T09:31:49;25.54;15.97
75838;SHT30;64480;52.040;113.502;2023-05-10T09:35:06;25.40;15.99
75838;SHT30;64480;52.040;113.502;2023-05-10T09:42:07;24.95;17.04
75838;SHT30;64480;52.040;113.502;2023-05-10T09:45:12;24.79;17.31
75838;SHT30;64480;52.040;113.502;2023-05-10T09:48:16;24.65;17.51
75838;SHT30;64480;52.040;113.502;2023-05-10T09:51:39;24.47;17.66
75838;SHT30;64480;52.040;113.502;2023-05-10T09:54:54;24.34;18.13
75838;SHT30;64480;52.040;113.502;2023-05-10T09:58:00;24.30;18.16
75838;SHT30;64480;52.040;113.502;2023-05-10T10:01:04;24.23;18.30
75838;SHT30;64480;52.040;113.502;2023-05-10T10:04:09;24.20;18.39
75838;SHT30;64480;52.040;113.502;2023-05-10T10:07:12;24.24;18.52
75838;SHT30;64480;52.040;113.502;2023-05-10T10:10:19;24.20;18.35
75838;SHT30;64480;52.040;113.502;2023-05-10T10:13:24;24.21;18.64
75838;SHT30;64480;52.040;113.502;2023-05-10T10:16:32;24.17;18.38
75838;SHT30;64480;52.040;113.502;2023-05-10T10:19:39;24.18;18.54
75838;SHT30;64480;52.040;113.502;2023-05-10T10:22:42;24.18;18.46
75838;SHT30;64480;52.040;113.502;2023-05-10T10:25:49;24.17;18.49
75838;SHT30;64480;52.040;113.502;2023-05-10T10:29:12;24.17;18.68
75838;SHT30;64480;52.040;113.502;2023-05-10T10:32:32;24.09;18.73
75838;SHT30;64480;52.040;113.502;2023-05-10T10:35:45;24.02;18.74
75838;SHT30;64480;52.040;113.502;2023-05-10T10:38:59;24.03;18.83
75838;SHT30;64480;52.040;113.502;2023-05-10T10:42:04;24.03;18.82
75838;SHT30;64480;52.040;113.502;2023-05-10T10:45:13;24.02;18.79
75838;SHT30;64480;52.040;113.502;2023-05-10T10:48:22;24.00;18.76
75838;SHT30;64480;52.040;113.502;2023-05-10T10:51:28;23.95;18.85
75838;SHT30;64480;52.040;113.502;2023-05-10T10:54:35;23.83;18.89
75838;SHT30;64480;52.040;113.502;2023-05-10T10:57:45;23.81;18.98
75838;SHT30;64480;52.040;113.502;2023-05-10T11:00:49;23.68;19.20
75838;SHT30;64480;52.040;113.502;2023-05-10T11:07:27;23.45;19.61
75838;SHT30;64480;52.040;113.502;2023-05-10T11:10:52;23.33;19.77
75838;SHT30;64480;52.040;113.502;2023-05-10T11:14:03;23.18;20.04
75838;SHT30;64480;52.040;113.502;2023-05-10T11:17:27;23.06;20.65
75838;SHT30;64480;52.040;113.502;2023-05-10T11:20:39;22.88;21.04
75838;SHT30;64480;52.040;113.502;2023-05-10T11:23:53;22.69;21.45
75838;SHT30;64480;52.040;113.502;2023-05-10T11:27:00;22.49;21.79
75838;SHT30;64480;52.040;113.502;2023-05-10T11:30:06;22.35;22.06
75838;SHT30;64480;52.040;113.502;2023-05-10T11:33:14;22.22;22.32
75838;SHT30;64480;52.040;113.502;2023-05-10T11:36:29;22.06;22.56
75838;SHT30;64480;52.040;113.502;2023-05-10T11:39:35;21.93;22.66
75838;SHT30;64480;52.040;113.502;2023-05-10T11:42:38;21.79;22.73
75838;SHT30;64480;52.040;113.502;2023-05-10T11:45:42;21.71;22.76
75838;SHT30;64480;52.040;113.502;2023-05-10T11:48:45;21.56;22.81
75838;SHT30;64480;52.040;113.502;2023-05-10T11:51:49;21.46;22.97
75838;SHT30;64480;52.040;113.502;2023-05-10T11:54:53;21.35;23.14
75838;SHT30;64480;52.040;113.502;2023-05-10T11:58:00;21.23;23.35
75838;SHT30;64480;52.040;113.502;2023-05-10T12:01:06;21.14;23.51
75838;SHT30;64480;52.040;113.502;2023-05-10T12:04:10;21.07;23.63
75838;SHT30;64480;52.040;113.502;2023-05-10T12:07:14;21.01;23.83
75838;SHT30;64480;52.040;113.502;2023-05-10T12:10:25;20.94;23.88
75838;SHT30;64480;52.040;113.502;2023-05-10T12:13:29;20.91;23.92
75838;SHT30;64480;52.040;113.502;2023-05-10T12:16:32;20.87;24.02
75838;SHT30;64480;52.040;113.502;2023-05-10T12:19:39;20.83;24.14
75838;SHT30;64480;52.040;113.502;2023-05-10T12:22:56;20.80;24.14
75838;SHT30;64480;52.040;113.502;2023-05-10T12:26:02;20.76;24.22
75838;SHT30;64480;52.040;113.502;2023-05-10T12:29:16;20.72;24.20
75838;SHT30;64480;52.040;113.502;2023-05-10T12:32:20;20.72;24.36
75838;SHT30;64480;52.040;113.502;2023-05-10T12:35:23;20.69;24.21
75838;SHT30;64480;52.040;113.502;2023-05-10T12:41:32;20.69;24.39
75838;SHT30;64480;52.040;113.502;2023-05-10T12:44:35;20.68;24.49
75838;SHT30;64480;52.040;113.502;2023-05-10T12:47:39;20.65;24.46
75838;SHT30;64480;52.040;113.502;2023-05-10T12:50:45;20.69;24.52
75838;SHT30;64480;52.040;113.502;2023-05-10T12:53:49;20.68;24.54
75838;SHT30;64480;52.040;113.502;2023-05-10T12:56:52;20.65;24.49
75838;SHT30;64480;52.040;113.502;2023-05-10T12:59:55;20.56;24.86
75838;SHT30;64480;52.040;113.502;2023-05-10T13:02:59;20.52;25.03
75838;SHT30;64480;52.040;113.502;2023-05-10T13:06:02;20.49;24.98
75838;SHT30;64480;52.040;113.502;2023-05-10T13:09:05;20.48;25.01
75838;SHT30;64480;52.040;113.502;2023-05-10T13:12:09;20.48;25.12
75838;SHT30;64480;52.040;113.502;2023-05-10T13:15:13;20.46;25.16
75838;SHT30;64480;52.040;113.502;2023-05-10T13:18:16;20.48;25.27
75838;SHT30;64480;52.040;113.502;2023-05-10T13:21:19;20.46;25.25
75838;SHT30;64480;52.040;113.502;2023-05-10T13:24:23;20.46;25.42
75838;SHT30;64480;52.040;113.502;2023-05-10T13:27:27;20.45;25.37
75838;SHT30;64480;52.040;113.502;2023-05-10T13:30:30;20.52;24.94
75838;SHT30;64480;52.040;113.502;2023-05-10T13:33:34;20.62;24.88
75838;SHT30;64480;52.040;113.502;2023-05-10T13:36:37;20.63;25.13
75838;SHT30;64480;52.040;113.502;2023-05-10T13:39:41;20.61;25.16
75838;SHT30;64480;52.040;113.502;2023-05-10T13:42:44;20.61;25.43
75838;SHT30;64480;52.040;113.502;2023-05-10T13:45:48;20.55;25.54
75838;SHT30;64480;52.040;113.502;2023-05-10T13:48:51;20.48;25.72
75838;SHT30;64480;52.040;113.502;2023-05-10T13:51:54;20.45;25.88
75838;SHT30;64480;52.040;113.502;2023-05-10T13:54:57;20.46;25.63
75838;SHT30;64480;52.040;113.502;2023-05-10T13:58:01;20.46;25.81
75838;SHT30;64480;52.040;113.502;2023-05-10T14:01:04;20.45;25.82
75838;SHT30;64480;52.040;113.502;2023-05-10T14:04:08;20.46;25.84
75838;SHT30;64480;52.040;113.502;2023-05-10T14:07:14;20.44;25.83
75838;SHT30;64480;52.040;113.502;2023-05-10T14:10:21;20.42;25.97
75838;SHT30;64480;52.040;113.502;2023-05-10T14:13:25;20.39;26.11
75838;SHT30;64480;52.040;113.502;2023-05-10T14:16:28;20.37;26.11
75838;SHT30;64480;52.040;113.502;2023-05-10T14:19:32;20.35;26.48
75838;SHT30;64480;52.040;113.502;2023-05-10T14:22:36;20.37;26.63
75838;SHT30;64480;52.040;113.502;2023-05-10T14:25:43;20.38;26.62
75838;SHT30;64480;52.040;113.502;2023-05-10T14:28:46;20.35;26.27
75838;SHT30;64480;52.040;113.502;2023-05-10T14:31:50;20.34;26.32
75838;SHT30;64480;52.040;113.502;2023-05-10T14:34:54;20.34;26.72
75838;SHT30;64480;52.040;113.502;2023-05-10T14:37:57;20.34;26.79
75838;SHT30;64480;52.040;113.502;2023-05-10T14:41:01;20.27;27.21
75838;SHT30;64480;52.040;113.502;2023-05-10T14:44:05;20.21;27.34
75838;SHT30;64480;52.040;113.502;2023-05-10T14:47:09;20.18;27.31
75838;SHT30;64480;52.040;113.502;2023-05-10T14:50:13;20.14;27.53
75838;SHT30;64480;52.040;113.502;2023-05-10T14:53:36;20.11;28.85
75838;SHT30;64480;52.040;113.502;2023-05-10T14:56:40;20.00;28.93
75838;SHT30;64480;52.040;113.502;2023-05-10T14:59:44;19.96;28.83
75838;SHT30;64480;52.040;113.502;2023-05-10T15:02:48;19.96;28.77
75838;SHT30;64480;52.040;113.502;2023-05-10T15:05:53;19.84;29.92
75838;SHT30;64480;52.040;113.502;2023-05-10T15:08:57;19.72;30.01
75838;SHT30;64480;52.040;113.502;2023-05-10T15:12:04;19.62;30.50
75838;SHT30;64480;52.040;113.502;2023-05-10T15:15:08;19.55;30.40
75838;SHT30;64480;52.040;113.502;2023-05-10T15:18:12;19.55;30.13
75838;SHT30;64480;52.040;113.502;2023-05-10T15:21:15;19.58;30.01
75838;SHT30;64480;52.040;113.502;2023-05-10T15:24:22;19.59;29.98
75838;SHT30;64480;52.040;113.502;2023-05-10T15:30:39;19.52;30.07
75838;SHT30;64480;52.040;113.502;2023-05-10T15:34:29;19.52;29.68
75838;SHT30;64480;52.040;113.502;2023-05-10T15:38:28;19.52;30.07
75838;SHT30;64480;52.040;113.502;2023-05-10T15:41:32;19.46;30.05
75838;SHT30;64480;52.040;113.502;2023-05-10T15:44:35;19.44;30.18
75838;SHT30;64480;52.040;113.502;2023-05-10T15:47:41;19.41;30.33
75838;SHT30;64480;52.040;113.502;2023-05-10T15:50:44;19.36;30.31
75838;SHT30;64480;52.040;113.502;2023-05-10T15:53:48;19.39;30.25
75838;SHT30;64480;52.040;113.502;2023-05-10T15:57:07;19.41;30.22
75838;SHT30;64480;52.040;113.502;2023-05-10T16:00:12;19.38;30.31
75838;SHT30;64480;52.040;113.502;2023-05-10T16:03:15;19.39;30.41
75838;SHT30;64480;52.040;113.502;2023-05-10T16:06:18;19.34;30.38
75838;SHT30;64480;52.040;113.502;2023-05-10T16:09:22;19.34;30.37
75838;SHT30;64480;52.040;113.502;2023-05-10T16:12:25;19.29;30.46
75838;SHT30;64480;52.040;113.502;2023-05-10T16:15:29;19.25;30.64
75838;SHT30;64480;52.040;113.502;2023-05-10T16:18:32;19.12;31.37
75838;SHT30;64480;52.040;113.502;2023-05-10T16:21:35;19.04;31.73
75838;SHT30;64480;52.040;113.502;2023-05-10T16:24:40;18.96;31.97
75838;SHT30;64480;52.040;113.502;2023-05-10T16:27:44;18.94;32.27
75838;SHT30;64480;52.040;113.502;2023-05-10T16:30:47;18.87;32.42
75838;SHT30;64480;52.040;113.502;2023-05-10T16:33:51;18.82;32.55
75838;SHT30;64480;52.040;113.502;2023-05-10T16:36:54;18.76;32.67
75838;SHT30;64480;52.040;113.502;2023-05-10T16:39:57;18.76;32.77
75838;SHT30;64480;52.040;113.502;2023-05-10T16:43:01;18.76;32.71
75838;SHT30;64480;52.040;113.502;2023-05-10T16:46:09;18.74;32.62
75838;SHT30;64480;52.040;113.502;2023-05-10T16:49:13;18.77;32.36
75838;SHT30;64480;52.040;113.502;2023-05-10T16:52:16;18.82;32.19
75838;SHT30;64480;52.040;113.502;2023-05-10T16:55:20;18.80;32.07
75838;SHT30;64480;52.040;113.502;2023-05-10T16:58:27;18.83;32.03
75838;SHT30;64480;52.040;113.502;2023-05-10T17:01:32;18.84;32.00
75838;SHT30;64480;52.040;113.502;2023-05-10T17:04:35;18.82;32.06
75838;SHT30;64480;52.040;113.502;2023-05-10T17:07:39;18.80;31.89
75838;SHT30;64480;52.040;113.502;2023-05-10T17:10:42;18.86;31.67
75838;SHT30;64480;52.040;113.502;2023-05-10T17:13:46;18.87;31.72
75838;SHT30;64480;52.040;113.502;2023-05-10T17:16:49;18.91;31.82
75838;SHT30;64480;52.040;113.502;2023-05-10T17:19:54;18.94;31.77
75838;SHT30;64480;52.040;113.502;2023-05-10T17:22:58;18.90;31.72
75838;SHT30;64480;52.040;113.502;2023-05-10T17:26:05;18.87;31.90
75838;SHT30;64480;52.040;113.502;2023-05-10T17:29:08;18.76;32.31
75838;SHT30;64480;52.040;113.502;2023-05-10T17:32:12;18.66;32.75
75838;SHT30;64480;52.040;113.502;2023-05-10T17:35:15;18.59;33.08
75838;SHT30;64480;52.040;113.502;2023-05-10T17:38:19;18.48;33.25
75838;SHT30;64480;52.040;113.502;2023-05-10T17:41:23;18.44;33.24
75838;SHT30;64480;52.040;113.502;2023-05-10T17:44:26;18.45;33.14
75838;SHT30;64480;52.040;113.502;2023-05-10T17:47:29;18.35;33.21
75838;SHT30;64480;52.040;113.502;2023-05-10T17:50:33;18.34;33.34
75838;SHT30;64480;52.040;113.502;2023-05-10T17:53:40;18.34;33.37
75838;SHT30;64480;52.040;113.502;2023-05-10T17:56:43;18.29;33.42
75838;SHT30;64480;52.040;113.502;2023-05-10T17:59:46;18.38;33.30
75838;SHT30;64480;52.040;113.502;2023-05-10T18:02:50;18.35;33.40
75838;SHT30;64480;52.040;113.502;2023-05-10T18:05:53;18.39;33.43
75838;SHT30;64480;52.040;113.502;2023-05-10T18:08:57;18.41;33.16
75838;SHT30;64480;52.040;113.502;2023-05-10T18:12:03;18.42;33.17
75838;SHT30;64480;52.040;113.502;2023-05-10T18:15:08;18.38;33.50
75838;SHT30;64480;52.040;113.502;2023-05-10T18:18:11;18.18;36.14
75838;SHT30;64480;52.040;113.502;2023-05-10T18:21:15;17.94;36.82
75838;SHT30;64480;52.040;113.502;2023-05-10T18:24:19;17.79;38.51
75838;SHT30;64480;52.040;113.502;2023-05-10T18:27:39;17.36;43.87
75838;SHT30;64480;52.040;113.502;2023-05-10T18:30:43;17.06;46.81
75838;SHT30;64480;52.040;113.502;2023-05-10T18:33:46;16.73;48.86
75838;SHT30;64480;52.040;113.502;2023-05-10T18:36:50;16.57;49.19
75838;SHT30;64480;52.040;113.502;2023-05-10T18:39:54;16.46;48.88
75838;SHT30;64480;52.040;113.502;2023-05-10T18:42:57;16.46;48.55
75838;SHT30;64480;52.040;113.502;2023-05-10T18:46:00;16.48;48.13
75838;SHT30;64480;52.040;113.502;2023-05-10T18:49:04;16.45;49.42
75838;SHT30;64480;52.040;113.502;2023-05-10T18:52:08;16.41;50.76
75838;SHT30;64480;52.040;113.502;2023-05-10T18:55:12;16.36;50.94
75838;SHT30;64480;52.040;113.502;2023-05-10T18:58:16;16.33;52.33
75838;SHT30;64480;52.040;113.502;2023-05-10T19:01:19;16.19;52.70
75838;SHT30;64480;52.040;113.502;2023-05-10T19:04:23;16.11;51.97
75838;SHT30;64480;52.040;113.502;2023-05-10T19:07:26;16.10;52.75
75838;SHT30;64480;52.040;113.502;2023-05-10T19:10:29;16.11;53.13
75838;SHT30;64480;52.040;113.502;2023-05-10T19:13:33;16.12;53.37
75838;SHT30;64480;52.040;113.502;2023-05-10T19:16:37;16.11;54.31
75838;SHT30;64480;52.040;113.502;2023-05-10T19:19:43;16.01;52.94
75838;SHT30;64480;52.040;113.502;2023-05-10T19:22:47;15.94;54.90
75838;SHT30;64480;52.040;113.502;2023-05-10T19:26:11;15.76;57.69
75838;SHT30;64480;52.040;113.502;2023-05-10T19:29:14;15.50;57.48
75838;SHT30;64480;52.040;113.502;2023-05-10T19:32:18;15.19;59.10
75838;SHT30;64480;52.040;113.502;2023-05-10T19:35:22;14.98;60.49
75838;SHT30;64480;52.040;113.502;2023-05-10T19:38:25;14.91;59.98
75838;SHT30;64480;52.040;113.502;2023-05-10T19:41:29;14.84;60.76
75838;SHT30;64480;52.040;113.502;2023-05-10T19:44:32;14.76;61.66
75838;SHT30;64480;52.040;113.502;2023-05-10T19:47:38;14.70;61.47
75838;SHT30;64480;52.040;113.502;2023-05-10T19:50:42;14.65;62.69
75838;SHT30;64480;52.040;113.502;2023-05-10T19:53:45;14.60;62.44
75838;SHT30;64480;52.040;113.502;2023-05-10T19:56:49;14.62;62.31
75838;SHT30;64480;52.040;113.502;2023-05-10T19:59:52;14.63;63.63
75838;SHT30;64480;52.040;113.502;2023-05-10T20:02:56;14.65;64.26
75838;SHT30;64480;52.040;113.502;2023-05-10T20:06:00;14.57;65.16
75838;SHT30;64480;52.040;113.502;2023-05-10T20:09:03;14.57;65.58
75838;SHT30;64480;52.040;113.502;2023-05-10T20:12:06;14.30;67.43
75838;SHT30;64480;52.040;113.502;2023-05-10T20:15:10;14.08;68.32
75838;SHT30;64480;52.040;113.502;2023-05-10T20:18:13;13.84;69.39